Time;durP1;ratioP1;P1;durP2;ratioP2;P2;SDS_P1;SDS_P2;PMS_P1;PMS_P2;Temp;Humidity;BMP_temperature;BMP_pressure;BME280_temperature;BME280_humidity;BME280_pressure;Samples;Min_cycle;Max_cycle;Signal;HPM_P1;HPM_P2
2022/02/24 00:01:33;;;;;;;2.92;1.25;;;17.70;52.20;;;;;;5050649;28;20179;-62
2022/02/24 00:03:58;;;;;;;3.45;1.40;;;17.60;52.10;;;;;;5051218;28;20266;-62
2022/02/24 00:06:24;;;;;;;3.22;1.55;;;17.70;52.20;;;;;;5051428;28;20262;-63
2022/02/24 00:08:50;;;;;;;3.75;1.60;;;17.60;52.20;;;;;;5050549;28;20326;-62
2022/02/24 00:11:15;;;;;;;3.05;1.70;;;17.60;52.10;;;;;;5050983;28;20248;-60
2022/02/24 00:13:41;;;;;;;2.80;1.50;;;17.60;52.10;;;;;;5051312;28;20283;-60
2022/02/24 00:16:06;;;;;;;1.95;1.27;;;17.60;52.20;;;;;;5050191;28;20284;-61
2022/02/24 00:18:32;;;;;;;2.92;1.77;;;17.60;52.20;;;;;;5051374;28;20175;-61
2022/02/24 00:20:57;;;;;;;2.50;1.40;;;17.60;52.20;;;;;;5050985;28;20626;-62
2022/02/24 00:23:23;;;;;;;4.70;1.70;;;17.60;52.20;;;;;;5050334;28;20630;-61
2022/02/24 00:25:48;;;;;;;2.10;1.42;;;17.60;52.20;;;;;;5051413;28;20175;-60
2022/02/24 00:28:14;;;;;;;2.22;1.55;;;17.50;52.10;;;;;;5050224;28;20174;-60
2022/02/24 00:30:39;;;;;;;5.25;2.03;;;17.50;52.90;;;;;;5051252;28;20171;-60
2022/02/24 00:33:05;;;;;;;3.58;1.60;;;17.50;52.00;;;;;;5050805;28;20176;-61
2022/02/24 00:35:30;;;;;;;4.15;2.00;;;17.50;52.10;;;;;;5050311;28;20221;-62
2022/02/24 00:37:56;;;;;;;2.72;1.75;;;17.50;52.00;;;;;;5050800;28;20167;-63
2022/02/24 00:40:21;;;;;;;2.22;1.42;;;17.50;52.00;;;;;;5051026;28;20179;-63
2022/02/24 00:42:47;;;;;;;3.42;1.50;;;17.50;51.90;;;;;;5050570;28;20572;-62
2022/02/24 00:45:13;;;;;;;2.25;1.60;;;17.50;52.10;;;;;;5050914;28;20386;-61
2022/02/24 00:47:38;;;;;;;1.90;1.58;;;17.50;52.20;;;;;;5051237;28;20259;-62
2022/02/24 00:50:04;;;;;;;2.22;1.50;;;17.50;52.00;;;;;;5050161;28;20258;-61
2022/02/24 00:52:30;;;;;;;3.65;2.05;;;17.40;51.90;;;;;;5050977;28;20540;-60
2022/02/24 00:54:55;;;;;;;2.15;1.67;;;17.40;51.90;;;;;;5050479;28;20670;-60
2022/02/24 00:57:20;;;;;;;2.42;2.00;;;17.40;51.90;;;;;;5050152;28;20211;-60
2022/02/24 00:59:46;;;;;;;2.22;1.58;;;17.40;52.00;;;;;;5050776;28;20186;-61
2022/02/24 01:02:11;;;;;;;3.67;1.77;;;17.40;52.00;;;;;;5051881;28;20179;-62
2022/02/24 01:04:37;;;;;;;2.63;1.92;;;17.40;52.00;;;;;;5053835;28;20630;-62
2022/02/24 01:07:03;;;;;;;2.03;1.55;;;17.40;52.10;;;;;;5053970;28;20206;-62
2022/02/24 01:09:28;;;;;;;2.03;1.50;;;17.40;52.10;;;;;;5054403;28;20173;-62
2022/02/24 01:11:54;;;;;;;3.20;1.75;;;17.40;52.00;;;;;;5053457;28;20186;-60
2022/02/24 01:14:19;;;;;;;2.08;1.50;;;17.40;52.10;;;;;;5054284;28;20241;-61
2022/02/24 01:16:45;;;;;;;2.47;1.50;;;17.40;52.00;;;;;;5054246;28;20634;-61
2022/02/24 01:19:10;;;;;;;2.70;1.50;;;17.30;52.00;;;;;;5053292;28;20266;-62
2022/02/24 01:21:36;;;;;;;2.88;1.50;;;17.30;51.90;;;;;;5054088;28;20285;-61
2022/02/24 01:24:02;;;;;;;2.45;1.85;;;17.30;52.00;;;;;;5053843;28;20262;-61
2022/02/24 01:26:27;;;;;;;3.15;1.65;;;17.40;52.00;;;;;;5053520;28;20626;-60
2022/02/24 01:28:53;;;;;;;2.42;1.35;;;17.30;51.90;;;;;;5053789;28;20676;-60
2022/02/24 01:31:18;;;;;;;3.53;1.90;;;17.30;52.00;;;;;;5054000;28;20475;-60
2022/02/24 01:33:44;;;;;;;2.88;1.85;;;17.30;52.00;;;;;;5053340;28;20183;-61
2022/02/24 01:36:09;;;;;;;2.47;1.95;;;17.30;51.90;;;;;;5053684;28;20260;-63
2022/02/24 01:38:35;;;;;;;4.43;1.98;;;17.30;52.00;;;;;;5053173;28;20221;-63
2022/02/24 01:41:00;;;;;;;3.67;1.70;;;17.30;52.10;;;;;;5053464;28;20266;-62
2022/02/24 01:43:26;;;;;;;2.80;2.08;;;17.30;52.10;;;;;;5054099;28;20175;-62
2022/02/24 01:45:51;;;;;;;3.55;1.70;;;17.30;52.10;;;;;;5053168;28;20264;-62
2022/02/24 01:48:17;;;;;;;2.75;1.70;;;17.30;52.10;;;;;;5053460;28;20236;-61
2022/02/24 01:50:43;;;;;;;2.83;2.03;;;17.30;52.10;;;;;;5053717;28;20179;-61
2022/02/24 01:53:08;;;;;;;3.33;1.73;;;17.20;52.00;;;;;;5052474;28;20190;-61
2022/02/24 01:55:34;;;;;;;4.95;1.73;;;17.20;52.00;;;;;;5019415;28;20214;-60
2022/02/24 01:57:59;;;;;;;2.40;1.58;;;17.20;52.20;;;;;;5053175;28;20223;-61
2022/02/24 02:00:25;;;;;;;3.92;1.80;;;17.20;52.00;;;;;;5052850;28;20179;-61
2022/02/24 02:02:50;;;;;;;3.97;1.88;;;17.20;52.00;;;;;;5053412;28;20250;-62
2022/02/24 02:05:16;;;;;;;4.43;1.92;;;17.20;52.00;;;;;;5053147;28;20189;-62
2022/02/24 02:07:41;;;;;;;3.00;1.58;;;17.20;52.00;;;;;;5052602;28;20175;-61
2022/02/24 02:10:08;;;;;;;4.30;1.98;;;17.20;52.00;;;;;;5053169;28;20175;-61
2022/02/24 02:12:48;;;;;;;4.00;1.88;;;17.20;52.00;;;;;;5052961;28;20176;-61
2022/02/24 02:15:13;;;;;;;4.03;2.50;;;17.10;51.90;;;;;;5052310;28;20329;-61
2022/02/24 02:17:39;;;;;;;2.47;1.80;;;17.10;51.90;;;;;;5053167;28;20292;-61
2022/02/24 02:20:05;;;;;;;3.90;1.80;;;17.10;51.90;;;;;;5052637;28;20175;-62
2022/02/24 02:22:30;;;;;;;3.20;2.00;;;17.10;51.90;;;;;;5052544;28;20168;-61
2022/02/24 02:24:59;;;;;;;4.30;1.95;;;17.10;52.00;;;;;;5035058;28;20266;-60
2022/02/24 02:27:25;;;;;;;2.60;1.83;;;17.10;51.90;;;;;;5052937;28;20178;-60
2022/02/24 02:29:50;;;;;;;3.45;2.33;;;17.10;52.00;;;;;;5052238;28;20171;-60
2022/02/24 02:32:16;;;;;;;4.68;2.10;;;17.10;52.00;;;;;;5052540;28;20205;-60
2022/02/24 02:34:41;;;;;;;2.67;1.80;;;17.10;51.90;;;;;;5052465;28;20211;-62
2022/02/24 02:37:07;;;;;;;4.18;2.17;;;17.10;51.90;;;;;;5052262;28;20167;-62
2022/02/24 02:39:32;;;;;;;4.03;1.77;;;17.10;51.90;;;;;;5053190;28;20209;-63
2022/02/24 02:41:58;;;;;;;3.72;2.25;;;17.10;51.90;;;;;;5051696;28;20171;-62
2022/02/24 02:44:23;;;;;;;4.50;2.10;;;17.10;52.00;;;;;;5052680;28;20210;-62
2022/02/24 02:46:49;;;;;;;3.15;2.55;;;17.10;52.00;;;;;;5052611;28;20179;-61
2022/02/24 02:49:14;;;;;;;3.70;1.88;;;17.10;52.00;;;;;;5051659;28;20199;-61
2022/02/24 02:51:40;;;;;;;3.60;2.03;;;17.10;51.90;;;;;;5052654;28;20529;-61
2022/02/24 02:54:06;;;;;;;4.20;2.28;;;17.10;52.00;;;;;;5052396;28;20197;-60
2022/02/24 02:56:31;;;;;;;3.22;1.98;;;17.00;51.90;;;;;;5033969;28;20635;-60
2022/02/24 02:58:57;;;;;;;3.78;1.63;;;17.00;51.80;;;;;;5051837;28;20233;-60
2022/02/24 03:01:22;;;;;;;2.92;1.85;;;17.00;51.90;;;;;;5052381;28;20213;-61
2022/02/24 03:03:48;;;;;;;2.67;1.80;;;17.00;51.80;;;;;;5051563;28;20688;-61
2022/02/24 03:06:13;;;;;;;3.78;2.10;;;17.00;51.80;;;;;;5051832;28;20579;-61
2022/02/24 03:08:39;;;;;;;2.38;2.05;;;17.00;51.90;;;;;;5052258;28;20229;-61
2022/02/24 03:11:04;;;;;;;3.28;1.92;;;17.00;51.90;;;;;;5051317;28;20175;-60
2022/02/24 03:13:30;;;;;;;3.25;2.00;;;17.00;51.90;;;;;;5052287;28;20267;-60
2022/02/24 03:15:55;;;;;;;4.20;2.10;;;17.00;51.80;;;;;;5051869;28;20207;-60
2022/02/24 03:18:21;;;;;;;2.90;2.13;;;17.00;51.90;;;;;;5051171;28;20627;-61
2022/02/24 03:20:46;;;;;;;2.30;1.80;;;17.00;51.90;;;;;;5051960;28;20183;-62
2022/02/24 03:23:12;;;;;;;4.18;1.92;;;17.00;51.90;;;;;;5052010;28;20167;-60
2022/02/24 03:25:37;;;;;;;4.00;2.20;;;17.00;51.90;;;;;;5050438;28;20179;-60
2022/02/24 03:28:03;;;;;;;4.43;2.35;;;17.00;51.90;;;;;;5051843;28;20252;-59
2022/02/24 03:30:29;;;;;;;3.85;2.13;;;16.90;52.50;;;;;;5051846;28;20179;-59
2022/02/24 03:32:55;;;;;;;2.55;1.75;;;17.00;51.80;;;;;;5050758;28;20225;-61
2022/02/24 03:35:20;;;;;;;4.32;2.17;;;17.00;51.80;;;;;;5033928;28;20207;-62
2022/02/24 03:37:47;;;;;;;3.08;1.80;;;16.90;51.80;;;;;;5051933;28;20201;-62
2022/02/24 03:40:12;;;;;;;2.88;1.70;;;16.90;51.90;;;;;;5051116;28;20249;-62
2022/02/24 03:42:38;;;;;;;3.00;1.65;;;16.90;51.80;;;;;;5051758;28;20203;-62
2022/02/24 03:45:04;;;;;;;4.10;1.73;;;16.90;51.80;;;;;;5050825;28;20193;-61
2022/02/24 03:47:29;;;;;;;6.13;1.85;;;16.90;51.80;;;;;;5051598;28;20218;-61
2022/02/24 03:49:55;;;;;;;2.90;1.90;;;16.90;51.80;;;;;;5051667;28;20171;-61
2022/02/24 03:52:20;;;;;;;3.80;1.98;;;16.90;51.80;;;;;;5051050;28;20168;-60
2022/02/24 03:54:46;;;;;;;4.22;2.05;;;16.90;51.80;;;;;;5051663;28;20207;-60
2022/02/24 03:57:12;;;;;;;2.42;1.98;;;16.90;51.80;;;;;;5051145;28;20219;-60
2022/02/24 03:59:37;;;;;;;4.20;1.98;;;16.90;51.80;;;;;;5050876;28;20179;-61
2022/02/24 04:02:04;;;;;;;2.88;2.05;;;16.90;51.70;;;;;;5052024;28;20202;-61
2022/02/24 04:04:30;;;;;;;3.38;1.77;;;16.90;51.80;;;;;;5051367;28;20499;-62
2022/02/24 04:06:55;;;;;;;2.53;1.58;;;16.90;51.80;;;;;;5050304;28;20183;-62
2022/02/24 04:09:21;;;;;;;4.18;1.90;;;16.80;51.80;;;;;;5051681;28;20275;-62
2022/02/24 04:11:47;;;;;;;3.67;1.90;;;16.80;51.80;;;;;;5051360;28;20549;-60
2022/02/24 04:14:12;;;;;;;6.13;2.47;;;16.80;51.70;;;;;;5050470;28;20720;-62
2022/02/24 04:16:37;;;;;;;4.13;1.60;;;16.80;51.70;;;;;;5051305;28;20711;-61
2022/02/24 04:19:03;;;;;;;5.00;2.05;;;16.80;51.80;;;;;;5051054;28;20179;-62
2022/02/24 04:21:29;;;;;;;2.38;1.90;;;16.80;51.70;;;;;;5050779;28;20175;-62
2022/02/24 04:23:54;;;;;;;3.08;1.88;;;16.80;51.70;;;;;;5051249;28;20179;-60
2022/02/24 04:26:20;;;;;;;3.42;1.80;;;16.80;51.70;;;;;;5051286;28;20637;-60
2022/02/24 04:28:45;;;;;;;4.68;1.65;;;16.80;51.70;;;;;;5050524;28;20261;-59
2022/02/24 04:31:11;;;;;;;3.35;1.80;;;16.80;51.70;;;;;;5050858;28;20224;-60
2022/02/24 04:33:36;;;;;;;2.75;1.80;;;16.80;51.70;;;;;;5051291;28;20528;-61
2022/02/24 04:36:02;;;;;;;2.40;1.55;;;16.80;51.70;;;;;;5050964;28;20226;-61
2022/02/24 04:38:27;;;;;;;2.17;1.88;;;16.80;51.70;;;;;;5055239;28;20195;-63
2022/02/24 04:40:53;;;;;;;2.90;2.05;;;16.80;51.80;;;;;;5054789;28;20619;-62
2022/02/24 04:43:19;;;;;;;2.40;1.80;;;16.70;51.70;;;;;;5054180;28;20182;-61
2022/02/24 04:45:44;;;;;;;3.60;1.90;;;16.70;51.70;;;;;;5055036;28;20641;-62
2022/02/24 04:48:11;;;;;;;3.00;2.10;;;16.70;51.70;;;;;;5054700;28;20524;-62
2022/02/24 04:50:37;;;;;;;4.07;1.90;;;16.80;51.70;;;;;;5054364;28;20175;-61
2022/02/24 04:53:02;;;;;;;4.38;1.85;;;16.80;51.70;;;;;;5054827;28;20258;-61
2022/02/24 04:55:28;;;;;;;4.57;2.50;;;16.70;51.80;;;;;;5053999;28;20207;-61
2022/02/24 04:57:53;;;;;;;1.90;1.70;;;16.70;51.80;;;;;;5054415;28;20267;-61
2022/02/24 05:00:19;;;;;;;2.88;1.88;;;16.70;51.80;;;;;;5054639;28;20713;-62
2022/02/24 05:02:44;;;;;;;6.18;2.47;;;16.70;51.80;;;;;;5053849;28;20171;-62
2022/02/24 05:05:10;;;;;;;2.35;1.88;;;16.70;51.90;;;;;;5054431;28;20183;-62
2022/02/24 05:07:36;;;;;;;2.20;1.58;;;16.70;51.90;;;;;;5054768;28;20248;-62
2022/02/24 05:10:03;;;;;;;3.67;2.00;;;16.70;51.90;;;;;;5053533;28;20215;-62
2022/02/24 05:12:28;;;;;;;4.90;2.25;;;16.70;51.90;;;;;;5054752;28;20210;-61
2022/02/24 05:14:54;;;;;;;2.95;1.55;;;16.70;51.90;;;;;;5054045;28;20259;-62
2022/02/24 05:17:19;;;;;;;2.42;1.75;;;16.70;51.90;;;;;;5053721;28;20221;-61
2022/02/24 05:19:44;;;;;;;4.10;2.00;;;16.70;51.90;;;;;;5054708;28;20630;-62
2022/02/24 05:22:10;;;;;;;3.03;1.73;;;16.70;51.90;;;;;;5054062;28;20171;-61
2022/02/24 05:24:35;;;;;;;3.15;1.60;;;16.70;51.90;;;;;;5053632;28;20182;-60
2022/02/24 05:27:01;;;;;;;2.90;1.85;;;16.70;52.00;;;;;;5053839;28;20171;-60
2022/02/24 05:29:26;;;;;;;2.47;1.83;;;16.60;51.90;;;;;;5054091;28;20650;-60
2022/02/24 05:31:52;;;;;;;2.20;1.80;;;16.70;52.00;;;;;;5053288;28;20649;-60
2022/02/24 05:34:17;;;;;;;3.50;2.05;;;16.60;51.90;;;;;;5053858;28;20191;-63
2022/02/24 05:36:43;;;;;;;4.60;2.33;;;16.60;51.90;;;;;;5053860;28;20175;-63
2022/02/24 05:39:09;;;;;;;3.45;1.90;;;16.60;51.90;;;;;;5052998;28;20298;-64
2022/02/24 05:41:35;;;;;;;2.30;1.90;;;16.60;51.90;;;;;;5053962;28;20179;-62
2022/02/24 05:44:00;;;;;;;3.80;1.73;;;16.60;51.90;;;;;;5053361;28;20593;-62
2022/02/24 05:46:26;;;;;;;3.55;1.80;;;16.60;51.90;;;;;;5052936;28;20175;-62
2022/02/24 05:48:51;;;;;;;3.47;1.65;;;16.60;51.90;;;;;;5053041;28;20622;-61
2022/02/24 05:51:17;;;;;;;3.13;2.08;;;16.60;52.00;;;;;;5053422;28;20186;-62
2022/02/24 05:53:42;;;;;;;4.13;1.92;;;16.60;51.90;;;;;;5053133;28;20191;-61
2022/02/24 05:56:08;;;;;;;3.42;1.85;;;16.60;51.90;;;;;;5053323;28;20232;-61
2022/02/24 05:58:33;;;;;;;3.65;1.98;;;16.60;52.00;;;;;;5053796;28;20626;-62
2022/02/24 06:00:59;;;;;;;2.90;1.90;;;16.60;52.00;;;;;;5052477;28;20256;-62
2022/02/24 06:03:24;;;;;;;5.32;2.90;;;16.60;52.00;;;;;;5053627;28;20685;-64
2022/02/24 06:05:53;;;;;;;3.60;2.10;;;16.60;52.00;;;;;;5053038;28;20171;-63
2022/02/24 06:08:19;;;;;;;3.20;2.25;;;16.60;52.00;;;;;;5053642;28;20186;-63
2022/02/24 06:10:44;;;;;;;4.72;2.08;;;16.50;51.90;;;;;;5053816;28;20175;-61
2022/02/24 06:13:10;;;;;;;4.10;1.83;;;16.50;51.90;;;;;;5052435;28;20602;-62
2022/02/24 06:15:35;;;;;;;2.72;1.73;;;16.60;52.00;;;;;;5053438;28;20260;-62
2022/02/24 06:18:10;;;;;;;3.33;1.98;;;16.50;51.90;;;;;;5053499;28;20250;-62
2022/02/24 06:20:35;;;;;;;3.17;2.28;;;16.60;52.10;;;;;;5052862;28;20350;-63
2022/02/24 06:23:01;;;;;;;3.55;2.13;;;16.60;52.00;;;;;;5053166;28;20204;-61
2022/02/24 06:25:26;;;;;;;4.03;2.00;;;16.50;52.00;;;;;;5053389;28;20220;-61
2022/02/24 06:27:52;;;;;;;3.00;2.05;;;16.50;52.10;;;;;;5052672;28;20598;-61
2022/02/24 06:30:17;;;;;;;5.45;2.30;;;16.50;52.10;;;;;;5053297;28;20625;-61
2022/02/24 06:32:43;;;;;;;4.32;2.08;;;16.50;52.00;;;;;;5053581;28;20266;-61
2022/02/24 06:35:09;;;;;;;3.78;1.95;;;16.50;52.00;;;;;;5052262;28;20227;-63
2022/02/24 06:37:35;;;;;;;3.53;2.10;;;16.50;52.00;;;;;;5053292;28;20171;-64
2022/02/24 06:40:00;;;;;;;2.78;1.98;;;16.50;52.10;;;;;;5052741;28;20676;-64
2022/02/24 06:42:26;;;;;;;3.63;1.73;;;16.50;52.00;;;;;;5052314;28;20206;-63
2022/02/24 06:44:51;;;;;;;5.10;1.92;;;16.50;52.10;;;;;;5052944;28;20195;-62
2022/02/24 06:47:17;;;;;;;5.20;2.17;;;16.50;52.10;;;;;;5052498;28;20181;-62
2022/02/24 06:49:43;;;;;;;3.28;1.90;;;16.50;52.10;;;;;;5051993;28;20622;-62
2022/02/24 06:52:08;;;;;;;2.67;2.03;;;16.40;52.00;;;;;;5052305;28;20171;-61
2022/02/24 06:54:34;;;;;;;3.70;2.17;;;16.50;52.10;;;;;;5052565;28;20222;-60
2022/02/24 06:57:00;;;;;;;2.65;1.80;;;16.40;52.10;;;;;;5051413;28;20593;-60
2022/02/24 06:59:27;;;;;;;3.55;2.00;;;16.40;52.10;;;;;;5051479;28;20203;-61
2022/02/24 07:01:52;;;;;;;4.70;1.90;;;16.50;52.20;;;;;;5052629;28;20179;-62
2022/02/24 07:04:18;;;;;;;2.35;1.80;;;16.40;52.10;;;;;;5051712;28;20187;-63
2022/02/24 07:06:44;;;;;;;3.28;1.95;;;16.40;52.30;;;;;;5052645;28;20187;-62
2022/02/24 07:09:09;;;;;;;5.13;2.28;;;16.40;52.20;;;;;;5051602;28;20171;-61
2022/02/24 07:11:35;;;;;;;2.95;1.90;;;16.40;52.30;;;;;;5052250;28;20179;-62
2022/02/24 07:14:01;;;;;;;5.05;2.42;;;16.50;52.40;;;;;;5051750;28;20175;-61
2022/02/24 07:16:26;;;;;;;3.65;1.70;;;16.50;52.30;;;;;;5051494;28;20356;-64
2022/02/24 07:18:52;;;;;;;2.80;1.90;;;16.50;53.50;;;;;;5052202;28;20171;-64
2022/02/24 07:21:17;;;;;;;4.63;2.28;;;16.50;53.00;;;;;;5052024;28;20194;-61
2022/02/24 07:23:43;;;;;;;3.45;1.80;;;16.50;53.00;;;;;;5051397;28;20645;-61
2022/02/24 07:26:10;;;;;;;4.60;1.60;;;16.50;53.00;;;;;;5051622;28;20171;-62
2022/02/24 07:28:36;;;;;;;6.18;2.15;;;16.60;53.00;;;;;;5051913;28;20190;-63
2022/02/24 07:31:01;;;;;;;3.90;1.95;;;16.60;52.60;;;;;;5051243;28;20183;-62
2022/02/24 07:33:27;;;;;;;3.85;2.10;;;16.60;52.70;;;;;;5051923;28;20602;-61
2022/02/24 07:35:52;;;;;;;4.88;2.15;;;16.60;52.80;;;;;;5051569;28;20637;-62
2022/02/24 07:38:18;;;;;;;6.15;2.10;;;16.60;52.70;;;;;;5051126;28;20216;-62
2022/02/24 07:40:43;;;;;;;5.88;2.15;;;16.60;52.90;;;;;;5051865;28;20193;-62
2022/02/24 07:43:12;;;;;;;3.90;1.80;;;16.70;53.00;;;;;;5051343;28;20282;-61
2022/02/24 07:45:37;;;;;;;2.83;1.80;;;16.80;53.40;;;;;;5051256;28;20175;-62
2022/02/24 07:48:03;;;;;;;4.15;1.92;;;16.80;53.50;;;;;;5051380;28;20201;-63
2022/02/24 07:50:29;;;;;;;3.20;1.83;;;17.00;53.50;;;;;;5051519;28;20646;-61
2022/02/24 07:52:54;;;;;;;4.32;2.03;;;17.20;53.40;;;;;;5053462;28;20177;-63
2022/02/24 07:55:20;;;;;;;3.95;2.03;;;17.30;53.30;;;;;;5060394;28;20199;-62
2022/02/24 07:57:45;;;;;;;4.20;2.10;;;17.50;53.20;;;;;;5061112;28;20214;-62
2022/02/24 08:00:15;;;;;;;3.53;1.88;;;17.60;53.10;;;;;;5061193;28;20261;-62
2022/02/24 08:02:41;;;;;;;4.00;1.98;;;17.80;53.00;;;;;;5065980;28;20702;-62
2022/02/24 08:05:08;;;;;;;3.83;1.95;;;17.90;53.00;;;;;;5071057;28;20200;-62
2022/02/24 08:07:33;;;;;;;3.67;1.80;;;17.90;52.90;;;;;;5070887;28;20181;-69
2022/02/24 08:09:59;;;;;;;2.45;1.52;;;18.10;52.90;;;;;;5071464;28;20170;-67
2022/02/24 08:12:39;;;;;;;4.78;2.00;;;18.20;52.60;;;;;;5067086;28;20186;-64
2022/02/24 08:15:08;;;;;;;5.00;1.92;;;18.30;52.40;;;;;;5060467;28;20638;-64
2022/02/24 08:17:34;;;;;;;3.97;1.70;;;18.30;52.40;;;;;;5056633;28;20195;-63
2022/02/24 08:20:00;;;;;;;3.90;1.70;;;18.40;52.20;;;;;;5059909;28;20213;-63
2022/02/24 08:22:26;;;;;;;3.65;1.65;;;18.50;51.90;;;;;;5072699;28;20589;-63
2022/02/24 08:24:52;;;;;;;4.00;1.80;;;18.60;51.80;;;;;;5073829;28;20232;-63
2022/02/24 08:27:17;;;;;;;2.85;1.60;;;18.60;51.70;;;;;;5055032;28;20572;-62
2022/02/24 08:29:43;;;;;;;4.18;1.35;;;18.60;51.50;;;;;;5055598;28;20174;-65
2022/02/24 08:32:08;;;;;;;3.65;1.80;;;18.60;51.60;;;;;;5054967;28;20182;-66
2022/02/24 08:34:34;;;;;;;4.15;1.90;;;18.60;51.50;;;;;;5062631;28;20166;-65
2022/02/24 08:36:59;;;;;;;4.30;1.67;;;18.60;51.40;;;;;;5074950;28;20174;-65
2022/02/24 08:39:25;;;;;;;3.40;1.98;;;18.60;51.50;;;;;;5075475;28;20641;-63
2022/02/24 08:41:50;;;;;;;4.57;1.92;;;18.60;51.40;;;;;;5074588;28;20178;-65
2022/02/24 08:44:16;;;;;;;1.98;1.20;;;18.60;51.50;;;;;;5075103;28;20193;-63
2022/02/24 08:46:42;;;;;;;3.55;1.88;;;18.60;51.40;;;;;;5075391;28;20201;-64
2022/02/24 08:49:08;;;;;;;2.03;1.38;;;18.60;51.50;;;;;;5074099;28;20175;-65
2022/02/24 08:51:33;;;;;;;3.97;1.90;;;18.70;51.40;;;;;;5064421;28;20186;-65
2022/02/24 08:53:59;;;;;;;2.38;1.50;;;18.70;51.30;;;;;;5054833;28;20174;-65
2022/02/24 08:56:24;;;;;;;2.80;1.45;;;18.80;51.20;;;;;;5054104;28;20222;-64
2022/02/24 08:58:50;;;;;;;4.35;1.52;;;18.80;51.20;;;;;;5054702;28;20546;-64
2022/02/24 09:01:15;;;;;;;2.40;1.63;;;18.80;51.10;;;;;;5054335;28;20194;-64
2022/02/24 09:03:41;;;;;;;2.78;1.60;;;18.90;51.10;;;;;;5053962;28;20221;-65
2022/02/24 09:06:06;;;;;;;1.85;1.48;;;18.80;51.10;;;;;;5054502;28;20270;-64
2022/02/24 09:08:32;;;;;;;2.40;1.27;;;18.80;51.10;;;;;;5054778;28;20167;-64
2022/02/24 09:10:57;;;;;;;3.63;1.40;;;18.80;51.10;;;;;;5053601;28;20265;-64
2022/02/24 09:13:23;;;;;;;6.30;1.80;;;18.70;51.20;;;;;;5054622;28;20638;-63
2022/02/24 09:15:48;;;;;;;2.63;1.63;;;18.60;51.50;;;;;;5053948;28;20215;-64
2022/02/24 09:18:14;;;;;;;2.80;1.63;;;18.50;51.50;;;;;;5054423;28;20194;-65
2022/02/24 09:20:39;;;;;;;2.17;1.55;;;18.40;51.60;;;;;;5054553;28;20183;-63
2022/02/24 09:23:05;;;;;;;3.10;1.73;;;18.40;51.80;;;;;;5052559;28;20198;-63
2022/02/24 09:25:31;;;;;;;3.92;1.85;;;18.40;51.70;;;;;;5054749;28;20187;-65
2022/02/24 09:27:56;;;;;;;5.43;2.10;;;18.40;51.50;;;;;;5054178;28;20622;-64
2022/02/24 09:30:22;;;;;;;2.13;1.33;;;18.30;51.90;;;;;;5053816;28;20175;-65
2022/02/24 09:32:47;;;;;;;3.15;1.67;;;18.40;51.70;;;;;;5054656;28;20207;-66
2022/02/24 09:35:14;;;;;;;2.53;1.20;;;18.30;51.70;;;;;;5054048;28;20269;-65
2022/02/24 09:37:40;;;;;;;3.05;1.67;;;18.30;51.90;;;;;;5053455;28;20187;-65
2022/02/24 09:40:07;;;;;;;3.28;1.50;;;18.20;51.90;;;;;;5054308;28;20194;-65
2022/02/24 09:42:34;;;;;;;4.63;1.50;;;18.10;52.10;;;;;;5054305;28;20182;-64
2022/02/24 09:44:59;;;;;;;3.60;1.42;;;18.10;52.10;;;;;;5053148;28;20716;-65
2022/02/24 09:47:26;;;;;;;1.50;1.23;;;18.00;52.20;;;;;;5054352;28;20208;-63
2022/02/24 09:49:53;;;;;;;3.58;1.40;;;18.10;52.40;;;;;;5054120;28;20183;-65
2022/02/24 09:52:18;;;;;;;2.25;1.50;;;18.10;52.30;;;;;;5035403;28;20645;-65
2022/02/24 09:54:44;;;;;;;1.70;1.30;;;18.10;52.20;;;;;;5054062;28;20245;-64
2022/02/24 09:57:09;;;;;;;2.92;1.38;;;18.10;52.10;;;;;;5056226;28;20618;-63
2022/02/24 09:59:35;;;;;;;2.25;1.35;;;18.00;52.10;;;;;;5073210;28;20171;-65
2022/02/24 10:02:00;;;;;;;3.53;1.75;;;18.00;52.10;;;;;;5073751;28;20185;-64
2022/02/24 10:04:26;;;;;;;2.85;1.45;;;18.00;52.20;;;;;;5055901;28;20214;-64
2022/02/24 10:06:52;;;;;;;2.33;1.17;;;18.00;52.20;;;;;;5073055;28;20174;-64
2022/02/24 10:09:33;;;;;;;2.88;1.67;;;17.90;52.20;;;;;;5073752;28;20655;-64
2022/02/24 10:12:10;;;;;;;2.35;1.50;;;17.90;52.30;;;;;;5072893;28;20177;-63
2022/02/24 10:14:36;;;;;;;3.13;1.25;;;17.90;52.30;;;;;;5073837;28;20164;-64
2022/02/24 10:17:08;;;;;;;2.20;1.10;;;17.90;52.30;;;;;;5073275;28;20218;-64
2022/02/24 10:19:37;;;;;;;2.10;1.30;;;18.00;52.20;;;;;;5072832;28;20650;-63
2022/02/24 10:22:14;;;;;;;2.88;1.52;;;18.00;52.10;;;;;;5073235;28;20269;-64
2022/02/24 10:24:41;;;;;;;1.70;1.35;;;18.00;52.10;;;;;;5075852;28;20197;-63
2022/02/24 10:27:17;;;;;;;2.28;1.13;;;18.00;52.00;;;;;;5092549;28;20653;-64
2022/02/24 10:30:04;;;;;;;1.40;0.95;;;18.00;52.00;;;;;;5093472;28;20624;-65
2022/02/24 10:32:33;;;;;;;3.35;1.40;;;17.90;52.00;;;;;;5093739;28;20173;-65
2022/02/24 10:35:25;;;;;;;4.22;1.40;;;17.90;52.10;;;;;;5092213;28;20206;-65
2022/02/24 10:38:04;;;;;;;3.10;1.40;;;17.90;52.10;;;;;;5093450;28;20170;-64
2022/02/24 10:40:40;;;;;;;1.98;1.00;;;17.90;52.20;;;;;;5093053;28;20205;-64
2022/02/24 10:43:12;;;;;;;2.90;1.40;;;18.00;52.20;;;;;;5093267;28;20189;-64
2022/02/24 10:45:38;;;;;;;2.47;1.20;;;18.00;52.20;;;;;;5093296;28;20670;-64
2022/02/24 10:48:05;;;;;;;2.22;1.50;;;17.90;52.10;;;;;;5074072;28;20177;-63
2022/02/24 10:50:51;;;;;;;3.60;1.33;;;18.10;51.90;;;;;;5093138;28;20193;-64
2022/02/24 10:53:19;;;;;;;2.65;1.40;;;18.10;51.80;;;;;;5093109;28;20174;-64
2022/02/24 10:55:54;;;;;;;4.38;1.77;;;18.20;51.70;;;;;;5092193;28;20221;-64
2022/02/24 10:58:20;;;;;;;2.15;1.42;;;18.20;51.80;;;;;;5080090;28;20596;-64
2022/02/24 11:00:45;;;;;;;1.75;1.17;;;18.10;51.80;;;;;;5072678;28;20170;-64
2022/02/24 11:03:11;;;;;;;2.17;1.20;;;18.20;51.80;;;;;;5071567;28;20190;-64
2022/02/24 11:05:36;;;;;;;2.35;1.25;;;18.20;51.80;;;;;;5072751;28;20243;-65
2022/02/24 11:08:02;;;;;;;1.70;1.30;;;18.20;51.80;;;;;;5054437;28;20171;-64
2022/02/24 11:10:27;;;;;;;3.28;1.40;;;18.20;51.80;;;;;;5054184;28;20183;-64
2022/02/24 11:12:53;;;;;;;2.45;1.27;;;18.20;51.70;;;;;;5054377;28;20529;-63
2022/02/24 11:15:18;;;;;;;2.78;1.23;;;18.30;51.70;;;;;;5037435;28;20205;-64
2022/02/24 11:17:44;;;;;;;4.60;1.92;;;18.30;51.70;;;;;;5072628;28;20186;-64
2022/02/24 11:20:10;;;;;;;1.75;1.33;;;18.40;51.70;;;;;;5054442;28;20220;-64
2022/02/24 11:22:35;;;;;;;3.35;1.38;;;18.40;51.70;;;;;;5071976;28;20579;-63
2022/02/24 11:25:01;;;;;;;2.67;1.52;;;18.40;51.60;;;;;;5049055;28;20254;-63
2022/02/24 11:27:39;;;;;;;2.28;1.10;;;18.50;51.50;;;;;;5034564;28;20186;-63
2022/02/24 11:30:29;;;;;;;1.75;1.10;;;18.50;51.40;;;;;;5033702;28;20183;-65
2022/02/24 11:32:55;;;;;;;2.38;1.27;;;18.50;51.30;;;;;;5036608;28;20187;-65
2022/02/24 11:35:22;;;;;;;3.22;1.60;;;18.60;51.30;;;;;;5052264;28;20213;-65
2022/02/24 11:37:51;;;;;;;3.28;1.30;;;18.60;51.20;;;;;;5051541;28;20566;-65
2022/02/24 11:40:16;;;;;;;3.05;1.30;;;18.70;51.20;;;;;;5052051;28;20171;-64
2022/02/24 11:42:42;;;;;;;3.00;1.52;;;18.70;51.20;;;;;;5051904;28;20167;-64
2022/02/24 11:45:23;;;;;;;2.20;1.20;;;18.70;51.50;;;;;;5050981;28;20194;-64
2022/02/24 11:47:56;;;;;;;1.65;0.90;;;18.70;51.30;;;;;;5051755;28;20236;-65
2022/02/24 11:50:28;;;;;;;3.90;1.30;;;18.50;51.40;;;;;;5051782;28;20183;-64
2022/02/24 11:52:53;;;;;;;1.83;1.23;;;18.40;51.60;;;;;;5051550;28;20233;-65
2022/02/24 11:55:37;;;;;;;1.42;1.10;;;18.40;51.70;;;;;;5051707;28;20223;-64
2022/02/24 11:58:29;;;;;;;2.42;1.13;;;18.30;51.90;;;;;;5050767;28;20234;-64
2022/02/24 12:01:15;;;;;;;3.03;1.33;;;18.20;52.00;;;;;;5051452;28;20646;-64
2022/02/24 12:03:43;;;;;;;5.00;1.70;;;18.10;52.10;;;;;;5051616;28;20606;-64
2022/02/24 12:06:09;;;;;;;3.20;1.20;;;18.10;52.10;;;;;;5050919;28;20216;-66
2022/02/24 12:09:00;;;;;;;3.65;1.45;;;18.10;52.10;;;;;;5051581;28;20529;-65
2022/02/24 12:11:42;;;;;;;0.90;0.90;;;18.10;52.00;;;;;;5051567;28;20171;-63
2022/02/24 12:14:19;;;;;;;3.25;1.30;;;18.10;52.00;;;;;;5035187;28;20262;-61
2022/02/24 12:17:00;;;;;;;2.90;1.40;;;18.10;52.00;;;;;;5051706;28;20221;-64
2022/02/24 12:19:58;;;;;;;1.83;1.05;;;18.10;52.00;;;;;;5050724;28;20174;-61
2022/02/24 12:22:29;;;;;;;1.83;1.10;;;18.20;52.00;;;;;;5050895;28;20236;-60
2022/02/24 12:25:05;;;;;;;2.33;1.20;;;18.10;52.10;;;;;;5055303;28;20181;-60
2022/02/24 12:27:41;;;;;;;2.55;1.30;;;18.10;52.10;;;;;;5070827;28;20193;-60
2022/02/24 12:30:09;;;;;;;2.03;1.10;;;18.20;51.90;;;;;;5070221;28;20528;-62
2022/02/24 12:32:55;;;;;;;2.40;1.10;;;18.30;52.60;;;;;;5070409;28;20182;-63
2022/02/24 12:35:22;;;;;;;3.03;1.10;;;18.30;51.90;;;;;;5071071;28;20636;-62
2022/02/24 12:37:48;;;;;;;3.35;1.38;;;18.30;51.90;;;;;;5071322;28;20190;-62
2022/02/24 12:40:34;;;;;;;2.92;1.25;;;18.30;51.70;;;;;;5070220;28;20171;-63
2022/02/24 12:43:00;;;;;;;3.15;1.25;;;18.30;51.80;;;;;;5070860;28;20175;-62
2022/02/24 12:45:27;;;;;;;2.33;1.30;;;18.20;51.80;;;;;;5071014;28;20551;-62
2022/02/24 12:47:53;;;;;;;2.35;1.35;;;18.20;52.00;;;;;;5070574;28;20217;-62